createdAt,value
2022-08-27T00:02:09.265Z,16.30
2022-08-27T00:04:39.238Z,16.30
2022-08-27T00:07:08.415Z,16.30
2022-08-27T00:09:37.392Z,16.30
2022-08-27T00:12:08.048Z,16.30
2022-08-27T00:14:38.598Z,16.30
2022-08-27T00:17:07.920Z,16.30
2022-08-27T00:19:36.946Z,16.30
2022-08-27T00:22:06.789Z,16.20
2022-08-27T00:24:35.294Z,16.20
2022-08-27T00:27:08.099Z,16.20
2022-08-27T00:29:37.607Z,16.20
2022-08-27T00:32:06.087Z,16.20
2022-08-27T00:34:34.392Z,16.20
2022-08-27T00:37:03.543Z,16.20
2022-08-27T00:39:31.949Z,16.20
2022-08-27T00:42:01.282Z,16.20
2022-08-27T00:44:31.929Z,16.20
2022-08-27T00:47:02.493Z,16.10
2022-08-27T00:49:37.524Z,16.10
2022-08-27T00:52:10.020Z,16.10
2022-08-27T00:54:38.339Z,16.10
2022-08-27T00:57:07.528Z,16.10
2022-08-27T00:59:38.014Z,16.10
2022-08-27T01:02:21.829Z,16.00
2022-08-27T01:04:54.774Z,16.00
2022-08-27T01:07:24.434Z,16.00
2022-08-27T01:10:00.216Z,16.00
2022-08-27T01:12:30.897Z,16.00
2022-08-27T01:15:02.245Z,15.90
2022-08-27T01:17:30.885Z,15.90
2022-08-27T01:20:03.282Z,15.90
2022-08-27T01:22:36.801Z,15.90
2022-08-27T01:25:09.807Z,15.90
2022-08-27T01:27:38.948Z,15.80
2022-08-27T01:30:09.639Z,15.90
2022-08-27T01:32:39.897Z,15.80
2022-08-27T01:35:12.200Z,15.80
2022-08-27T01:37:41.313Z,15.80
2022-08-27T01:40:13.378Z,15.80
2022-08-27T01:42:45.281Z,15.80
2022-08-27T01:45:15.970Z,15.70
2022-08-27T01:47:44.302Z,15.70
2022-08-27T01:50:16.106Z,15.70
2022-08-27T01:52:44.846Z,15.70
2022-08-27T01:55:17.816Z,15.70
2022-08-27T01:57:46.525Z,15.60
2022-08-27T02:00:18.453Z,15.60
2022-08-27T02:02:47.196Z,15.60
2022-08-27T02:05:16.128Z,15.60
2022-08-27T02:07:45.632Z,15.50
2022-08-27T02:10:19.883Z,15.50
2022-08-27T02:12:48.174Z,15.50
2022-08-27T02:15:16.757Z,15.50
2022-08-27T02:17:45.057Z,15.40
2022-08-27T02:20:14.888Z,15.40
2022-08-27T02:22:43.977Z,15.40
2022-08-27T02:25:14.457Z,15.40
2022-08-27T02:27:45.268Z,15.40
2022-08-27T02:30:19.688Z,15.40
2022-08-27T02:32:48.109Z,15.30
2022-08-27T02:35:18.535Z,15.30
2022-08-27T02:37:47.199Z,15.30
2022-08-27T02:40:17.365Z,15.20
2022-08-27T02:42:47.444Z,15.20
2022-08-27T02:45:16.887Z,15.20
2022-08-27T02:47:45.308Z,15.20
2022-08-27T02:50:14.510Z,15.10
2022-08-27T02:52:45.294Z,15.10
2022-08-27T02:55:17.445Z,15.10
2022-08-27T02:57:47.345Z,15.10
2022-08-27T03:00:18.989Z,15.10
2022-08-27T03:02:48.267Z,15.10
2022-08-27T03:05:17.826Z,15.10
2022-08-27T03:07:46.787Z,15.10
2022-08-27T03:10:17.562Z,15.10
2022-08-27T03:12:47.386Z,15.00
2022-08-27T03:15:18.018Z,15.00
2022-08-27T03:18:03.669Z,15.00
2022-08-27T03:20:33.226Z,14.90
2022-08-27T03:23:01.997Z,14.90
2022-08-27T03:25:30.642Z,14.90
2022-08-27T03:28:02.909Z,14.90
2022-08-27T03:30:32.346Z,14.80
2022-08-27T03:33:00.609Z,14.80
2022-08-27T03:35:29.045Z,14.80
2022-08-27T03:37:58.373Z,14.80
2022-08-27T03:40:26.901Z,14.80
2022-08-27T03:42:55.549Z,14.70
2022-08-27T03:45:27.185Z,14.70
2022-08-27T03:47:55.532Z,14.70
2022-08-27T03:50:23.845Z,14.70
2022-08-27T03:52:52.168Z,14.60
2022-08-27T03:55:21.550Z,14.60
2022-08-27T03:57:49.970Z,14.60
2022-08-27T04:00:18.279Z,14.50
2022-08-27T04:02:48.020Z,14.50
2022-08-27T04:05:16.367Z,14.50
2022-08-27T04:07:45.141Z,14.50
2022-08-27T04:10:14.589Z,14.40
2022-08-27T04:12:43.630Z,14.40
2022-08-27T04:15:13.746Z,14.40
2022-08-27T04:17:42.784Z,14.40
2022-08-27T04:20:34.691Z,14.30
2022-08-27T04:23:01.104Z,14.30
2022-08-27T04:25:29.472Z,14.30
2022-08-27T04:27:57.870Z,14.30
2022-08-27T04:30:26.743Z,14.30
2022-08-27T04:32:55.197Z,14.30
2022-08-27T04:35:24.905Z,14.30
2022-08-27T04:37:53.234Z,14.30
2022-08-27T04:40:21.642Z,14.30
2022-08-27T04:42:50.157Z,14.30
2022-08-27T04:45:18.602Z,14.30
2022-08-27T04:47:46.868Z,14.20
2022-08-27T04:50:15.186Z,14.20
2022-08-27T04:52:45.638Z,14.20
2022-08-27T04:55:16.264Z,14.20
2022-08-27T04:57:44.549Z,14.20
2022-08-27T05:00:14.035Z,14.20
2022-08-27T05:02:42.347Z,14.20
2022-08-27T05:05:15.463Z,14.20
2022-08-27T05:07:45.799Z,14.20
2022-08-27T05:10:14.617Z,14.20
2022-08-27T05:12:43.189Z,14.20
2022-08-27T05:15:12.640Z,14.20
2022-08-27T05:17:40.945Z,14.10
2022-08-27T05:20:10.868Z,14.00
2022-08-27T05:22:39.942Z,14.00
2022-08-27T05:25:11.267Z,13.90
2022-08-27T05:27:39.622Z,13.90
2022-08-27T05:30:09.021Z,13.90
2022-08-27T05:32:37.346Z,14.00
2022-08-27T05:35:06.062Z,14.00
2022-08-27T05:37:34.621Z,14.00
2022-08-27T05:40:03.740Z,14.00
2022-08-27T05:42:34.394Z,14.00
2022-08-27T05:45:02.732Z,14.00
2022-08-27T07:15:51.706Z,17.30
2022-08-27T07:18:20.952Z,17.30
2022-08-27T07:21:21.061Z,17.40
2022-08-27T07:23:55.170Z,17.60
2022-08-27T07:26:26.311Z,17.80
2022-08-27T07:29:05.621Z,18.00
2022-08-27T07:31:56.016Z,18.40
2022-08-27T07:34:44.994Z,18.70
2022-08-27T07:37:35.142Z,19.00
2022-08-27T07:40:24.840Z,19.10
2022-08-27T07:43:33.813Z,19.40
2022-08-27T07:52:36.897Z,20.70
2022-08-27T07:55:26.116Z,21.40
2022-08-27T08:14:12.422Z,24.80
2022-08-27T08:17:02.603Z,25.10
2022-08-27T08:20:17.492Z,25.40
2022-08-27T08:23:03.348Z,25.70
2022-08-27T08:25:52.903Z,26.50
2022-08-27T08:28:51.201Z,26.80
2022-08-27T08:32:21.495Z,27.30
2022-08-27T08:35:13.843Z,27.70
2022-08-27T08:38:02.905Z,27.50
2022-08-27T09:06:48.872Z,30.30
2022-08-27T09:15:56.554Z,30.40
2022-08-27T09:24:49.496Z,30.10
2022-08-27T09:27:18.620Z,30.40
2022-08-27T09:30:13.946Z,30.40
2022-08-27T09:32:44.104Z,30.60
2022-08-27T09:35:16.644Z,30.70
2022-08-27T09:37:49.338Z,31.10
2022-08-27T09:40:23.007Z,31.50
2022-08-27T09:42:57.715Z,31.90
2022-08-27T09:45:29.880Z,31.90
2022-08-27T09:48:07.636Z,32.40
2022-08-27T09:50:43.600Z,32.20
2022-08-27T09:53:22.234Z,31.50
2022-08-27T09:55:56.233Z,32.10
2022-08-27T09:58:27.495Z,32.80
2022-08-27T10:01:05.585Z,33.50
2022-08-27T10:03:36.021Z,33.60
2022-08-27T10:06:06.275Z,33.80
2022-08-27T10:08:41.782Z,33.60
2022-08-27T10:11:17.504Z,33.70
2022-08-27T10:13:54.052Z,33.60
2022-08-27T10:16:53.660Z,33.80
2022-08-27T10:19:39.667Z,33.90
2022-08-27T10:22:19.648Z,34.00
2022-08-27T10:25:00.053Z,33.80
2022-08-27T10:27:33.542Z,34.00
2022-08-27T10:30:32.817Z,34.20
2022-08-27T10:33:10.547Z,33.80
2022-08-27T10:35:48.151Z,33.80
2022-08-27T10:38:25.867Z,34.20
2022-08-27T10:40:59.563Z,34.10
2022-08-27T10:53:03.014Z,34.50
2022-08-27T10:55:36.004Z,34.20
2022-08-27T11:18:53.883Z,33.80
2022-08-27T11:21:34.626Z,33.70
2022-08-27T11:24:15.642Z,33.60
2022-08-27T11:26:45.615Z,33.80
2022-08-27T11:30:07.145Z,33.60
2022-08-27T11:32:50.864Z,33.70
2022-08-27T11:35:40.167Z,34.10
2022-08-27T11:38:37.491Z,34.20
2022-08-27T11:41:24.998Z,34.00
2022-08-27T11:43:56.714Z,34.00
2022-08-27T11:46:27.230Z,34.20
2022-08-27T11:49:01.327Z,34.00
2022-08-27T11:51:35.079Z,33.80
2022-08-27T11:54:06.692Z,33.80
2022-08-27T11:56:42.050Z,33.60
2022-08-27T11:59:22.554Z,33.30
2022-08-27T12:01:53.442Z,33.20
2022-08-27T12:04:33.633Z,33.10
2022-08-27T12:07:07.322Z,33.10
2022-08-27T12:09:58.097Z,33.40
2022-08-27T12:12:35.170Z,33.30
2022-08-27T12:15:09.592Z,33.10
2022-08-27T12:17:45.642Z,33.20
2022-08-27T12:20:22.128Z,33.10
2022-08-27T12:23:20.442Z,32.70
2022-08-27T12:25:57.825Z,32.70
2022-08-27T12:28:27.438Z,32.40
2022-08-27T12:30:58.652Z,32.10
2022-08-27T12:33:33.046Z,31.90
2022-08-27T12:36:09.715Z,31.80
2022-08-27T12:38:50.622Z,31.70
2022-08-27T12:41:27.868Z,31.40
2022-08-27T12:44:08.251Z,31.10
2022-08-27T12:46:46.552Z,30.80
2022-08-27T12:49:38.241Z,30.70
2022-08-27T12:52:20.217Z,30.50
2022-08-27T12:55:05.138Z,30.40
2022-08-27T12:57:43.232Z,30.30
2022-08-27T13:00:19.360Z,30.30
2022-08-27T13:03:15.048Z,30.20
2022-08-27T13:05:46.578Z,30.10
2022-08-27T13:08:24.382Z,29.80
2022-08-27T13:10:54.744Z,29.90
2022-08-27T13:13:25.864Z,29.80
2022-08-27T13:15:57.249Z,29.80
2022-08-27T13:18:30.045Z,29.70
2022-08-27T13:21:08.996Z,29.50
2022-08-27T13:23:37.666Z,29.40
2022-08-27T13:26:10.166Z,29.20
2022-08-27T13:28:41.714Z,29.20
2022-08-27T13:31:12.165Z,29.20
2022-08-27T13:33:42.224Z,29.00
2022-08-27T13:36:11.535Z,28.90
2022-08-27T13:38:43.731Z,28.80
2022-08-27T13:41:24.907Z,28.70
2022-08-27T13:43:58.545Z,28.60
2022-08-27T13:46:30.988Z,28.50
2022-08-27T13:49:01.316Z,28.40
2022-08-27T13:51:33.619Z,28.20
2022-08-27T13:54:13.920Z,28.20
2022-08-27T13:57:03.448Z,28.20
2022-08-27T14:02:27.119Z,28.20
2022-08-27T14:05:11.289Z,28.20
2022-08-27T14:07:44.569Z,28.20
2022-08-27T14:10:31.142Z,28.00
2022-08-27T14:13:04.440Z,27.90
2022-08-27T14:15:38.375Z,27.80
2022-08-27T14:18:29.144Z,27.80
2022-08-27T14:21:10.530Z,27.80
2022-08-27T14:23:38.978Z,27.70
2022-08-27T14:26:10.504Z,27.70
2022-08-27T14:28:40.374Z,27.70
2022-08-27T14:31:08.797Z,27.70
2022-08-27T14:33:37.318Z,27.70
2022-08-27T14:36:07.643Z,27.70
2022-08-27T14:38:39.547Z,27.60
2022-08-27T14:41:09.938Z,27.60
2022-08-27T14:43:39.828Z,27.60
2022-08-27T14:46:17.445Z,27.50
2022-08-27T14:48:51.555Z,27.40
2022-08-27T14:51:25.341Z,27.30
2022-08-27T14:53:54.114Z,27.30
2022-08-27T14:56:24.017Z,27.20
2022-08-27T14:58:54.343Z,27.10
2022-08-27T15:01:25.322Z,27.20
2022-08-27T15:03:55.284Z,27.20
2022-08-27T15:06:25.152Z,27.20
2022-08-27T15:08:55.226Z,27.20
2022-08-27T15:11:25.968Z,27.10
2022-08-27T15:13:57.317Z,27.10
2022-08-27T15:16:31.198Z,27.10
2022-08-27T15:19:00.759Z,27.00
2022-08-27T15:21:31.051Z,27.00
2022-08-27T15:24:01.864Z,27.00
2022-08-27T15:26:31.285Z,27.00
2022-08-27T15:29:51.645Z,27.10
2022-08-27T15:32:28.865Z,27.00
2022-08-27T15:34:58.530Z,27.00
2022-08-27T15:37:27.725Z,26.90
2022-08-27T15:39:56.173Z,26.90
2022-08-27T15:42:25.654Z,26.90
2022-08-27T15:44:56.515Z,26.90
2022-08-27T15:47:26.743Z,26.80
2022-08-27T15:49:55.590Z,26.80
2022-08-27T15:52:24.936Z,26.80
2022-08-27T15:55:06.579Z,26.80
2022-08-27T15:57:35.017Z,26.80
2022-08-27T16:00:04.034Z,26.80
2022-08-27T16:02:34.612Z,26.80
2022-08-27T16:05:03.101Z,26.80
2022-08-27T16:07:31.549Z,26.80
2022-08-27T16:10:00.154Z,26.80
2022-08-27T16:12:28.922Z,26.80
2022-08-27T16:14:57.887Z,26.70
2022-08-27T16:17:27.504Z,26.70
2022-08-27T16:19:57.465Z,26.60
2022-08-27T16:22:26.036Z,26.60
2022-08-27T16:24:54.757Z,26.60
2022-08-27T16:27:23.360Z,26.50
2022-08-27T16:30:19.128Z,26.50
2022-08-27T16:32:49.525Z,26.40
2022-08-27T16:35:19.910Z,26.40
2022-08-27T16:37:48.825Z,26.40
2022-08-27T16:40:17.926Z,26.50
2022-08-27T16:42:50.003Z,26.50
2022-08-27T16:45:23.096Z,26.50
2022-08-27T16:48:09.550Z,26.50
2022-08-27T16:50:40.880Z,26.50
2022-08-27T16:53:13.229Z,26.50
2022-08-27T16:55:43.609Z,26.50
2022-08-27T16:58:21.394Z,26.50
2022-08-27T17:00:53.190Z,26.40
2022-08-27T17:03:23.622Z,26.30
2022-08-27T17:05:53.768Z,26.20
2022-08-27T17:08:26.265Z,26.10
2022-08-27T17:10:57.946Z,26.00
2022-08-27T17:13:32.639Z,26.00
2022-08-27T17:16:02.127Z,25.90
2022-08-27T17:18:31.712Z,25.90
2022-08-27T17:21:02.301Z,25.90
2022-08-27T17:23:34.917Z,25.90
2022-08-27T17:26:05.263Z,25.90
2022-08-27T17:28:34.065Z,25.70
2022-08-27T17:31:03.405Z,25.70
2022-08-27T17:33:36.005Z,25.70
2022-08-27T17:36:07.912Z,25.70
2022-08-27T17:38:38.799Z,25.70
2022-08-27T17:41:12.104Z,25.70
2022-08-27T17:43:43.513Z,25.60
2022-08-27T17:46:13.769Z,25.60
2022-08-27T17:48:42.519Z,25.60
2022-08-27T17:51:13.788Z,25.60
2022-08-27T17:53:47.271Z,25.60
2022-08-27T17:56:22.046Z,25.60
2022-08-27T17:58:52.434Z,25.60
2022-08-27T18:01:24.400Z,25.60
2022-08-27T18:06:42.523Z,25.50
2022-08-27T18:09:11.391Z,25.50
2022-08-27T18:11:41.595Z,25.40
2022-08-27T18:14:11.593Z,25.40
2022-08-27T18:16:40.622Z,25.40
2022-08-27T18:19:09.881Z,25.30
2022-08-27T18:21:46.167Z,25.30
2022-08-27T18:24:17.811Z,25.20
2022-08-27T18:26:47.441Z,25.20
2022-08-27T18:29:26.089Z,25.10
2022-08-27T18:31:54.627Z,25.10
2022-08-27T18:34:36.975Z,25.00
2022-08-27T18:37:09.789Z,24.90
2022-08-27T18:39:40.704Z,24.70
2022-08-27T18:42:10.452Z,24.60
2022-08-27T18:44:41.884Z,24.40
2022-08-27T18:47:10.444Z,24.20
2022-08-27T18:49:39.092Z,24.20
2022-08-27T18:52:09.016Z,24.10
2022-08-27T18:54:38.296Z,24.00
2022-08-27T18:57:08.388Z,23.80
2022-08-27T18:59:36.965Z,23.70
2022-08-27T19:02:06.298Z,23.70
2022-08-27T19:04:35.381Z,23.60
2022-08-27T19:07:03.873Z,23.50
2022-08-27T19:09:32.342Z,23.50
2022-08-27T19:12:03.671Z,23.40
2022-08-27T19:14:34.833Z,23.40
2022-08-27T19:17:04.287Z,23.30
2022-08-27T19:19:33.311Z,23.20
2022-08-27T19:22:06.824Z,23.10
2022-08-27T19:24:36.853Z,22.90
2022-08-27T19:27:09.711Z,22.90
2022-08-27T19:30:07.120Z,22.80
2022-08-27T19:32:35.756Z,22.70
2022-08-27T19:35:04.585Z,22.70
2022-08-27T19:37:41.090Z,22.60
2022-08-27T19:40:11.349Z,22.60
2022-08-27T19:42:40.886Z,22.50
2022-08-27T19:45:11.904Z,22.50
2022-08-27T19:47:41.276Z,22.40
2022-08-27T19:50:10.351Z,22.30
2022-08-27T19:52:38.732Z,22.30
2022-08-27T19:55:13.888Z,22.20
2022-08-27T19:57:44.090Z,22.20
2022-08-27T20:00:16.738Z,22.10
2022-08-27T20:02:45.173Z,22.00
2022-08-27T20:05:18.246Z,21.90
2022-08-27T20:07:47.319Z,21.80
2022-08-27T20:10:16.468Z,21.70
2022-08-27T20:12:45.095Z,21.70
2022-08-27T20:15:15.224Z,21.70
2022-08-27T20:17:45.303Z,21.70
2022-08-27T20:20:14.783Z,21.60
2022-08-27T20:22:44.190Z,21.60
2022-08-27T20:25:13.752Z,21.60
2022-08-27T20:27:47.696Z,21.50
2022-08-27T20:30:42.710Z,21.50
2022-08-27T20:33:17.591Z,21.50
2022-08-27T20:35:46.143Z,21.40
2022-08-27T20:38:14.666Z,21.40
2022-08-27T20:40:43.195Z,21.40
2022-08-27T20:43:11.700Z,21.40
2022-08-27T20:45:42.265Z,21.30
2022-08-27T20:48:11.782Z,21.30
2022-08-27T20:50:54.369Z,21.30
2022-08-27T20:53:22.796Z,21.30
2022-08-27T20:55:51.139Z,21.20
2022-08-27T20:58:36.932Z,21.20
2022-08-27T21:01:07.244Z,21.20
2022-08-27T21:03:35.811Z,21.20
2022-08-27T21:06:30.953Z,21.10
2022-08-27T21:09:01.809Z,21.10
2022-08-27T21:11:30.257Z,21.00
2022-08-27T21:13:58.753Z,21.00
2022-08-27T21:16:29.010Z,21.00
2022-08-27T21:18:57.510Z,20.90
2022-08-27T21:21:25.943Z,20.90
2022-08-27T21:23:55.494Z,20.90
2022-08-27T21:26:24.020Z,20.80
2022-08-27T21:29:19.384Z,20.80
2022-08-27T21:31:49.648Z,20.70
2022-08-27T21:34:18.208Z,20.70
2022-08-27T21:36:46.577Z,20.70
2022-08-27T21:39:14.874Z,20.60
2022-08-27T21:41:43.150Z,20.60
2022-08-27T21:44:11.456Z,20.60
2022-08-27T21:46:39.820Z,20.60
2022-08-27T21:49:09.538Z,20.50
2022-08-27T21:51:38.017Z,20.50
2022-08-27T21:54:06.430Z,20.50
2022-08-27T21:56:34.926Z,20.50
2022-08-27T21:59:03.225Z,20.40
2022-08-27T22:01:31.605Z,20.40
2022-08-27T22:03:59.972Z,20.40
2022-08-27T22:06:30.050Z,20.40
2022-08-27T22:08:58.397Z,20.40
2022-08-27T22:11:26.978Z,20.30
2022-08-27T22:13:57.377Z,20.30
2022-08-27T22:16:25.799Z,20.30
2022-08-27T22:18:54.749Z,20.30
2022-08-27T22:21:23.805Z,20.20
2022-08-27T22:23:53.576Z,20.20
2022-08-27T22:26:22.815Z,20.10
2022-08-27T22:28:51.088Z,20.10
2022-08-27T22:31:20.492Z,20.10
2022-08-27T22:33:48.824Z,20.00
2022-08-27T22:36:17.266Z,20.00
2022-08-27T22:38:46.491Z,20.00
2022-08-27T22:41:18.313Z,20.00
2022-08-27T22:43:46.971Z,19.90
2022-08-27T22:46:15.382Z,19.90
2022-08-27T22:48:43.738Z,19.90
2022-08-27T22:51:12.618Z,19.90
2022-08-27T22:53:40.885Z,19.80
2022-08-27T22:56:09.192Z,19.80
2022-08-27T22:58:38.837Z,19.80
2022-08-27T23:01:07.919Z,19.70
2022-08-27T23:03:36.321Z,19.70
2022-08-27T23:06:05.070Z,19.70
2022-08-27T23:08:33.336Z,19.70
2022-08-27T23:11:03.656Z,19.60
2022-08-27T23:13:32.773Z,19.60
2022-08-27T23:16:03.898Z,19.60
2022-08-27T23:18:32.459Z,19.50
2022-08-27T23:21:01.867Z,19.50
2022-08-27T23:23:30.839Z,19.50
2022-08-27T23:26:17.503Z,19.40
2022-08-27T23:28:45.865Z,19.40
2022-08-27T23:31:16.389Z,19.40
2022-08-27T23:33:44.873Z,19.40
2022-08-27T23:36:13.526Z,19.30
2022-08-27T23:38:41.790Z,19.40
2022-08-27T23:41:10.590Z,19.30
2022-08-27T23:43:39.412Z,19.30
2022-08-27T23:46:07.775Z,19.20
2022-08-27T23:48:39.334Z,19.20
2022-08-27T23:51:08.191Z,19.20
2022-08-27T23:53:36.612Z,19.20
2022-08-27T23:56:05.481Z,19.10
2022-08-27T23:58:33.907Z,19.10
